sensor_id;sensor_type;location;lat;lon;timestamp;P1;durP1;ratioP1;P2;durP2;ratioP2
71941;SDS011;59997;53.300;-6.260;2022-11-20T00:01:39;8.07;;;2.00;;
71941;SDS011;59997;53.300;-6.260;2022-11-20T00:04:04;9.48;;;1.38;;
71941;SDS011;59997;53.300;-6.260;2022-11-20T00:06:29;9.77;;;1.47;;
71941;SDS011;59997;53.300;-6.260;2022-11-20T00:08:56;9.43;;;1.83;;
71941;SDS011;59997;53.300;-6.260;2022-11-20T00:11:23;13.80;;;2.28;;
71941;SDS011;59997;53.300;-6.260;2022-11-20T00:13:51;14.52;;;2.35;;
71941;SDS011;59997;53.300;-6.260;2022-11-20T00:16:19;16.50;;;1.77;;
71941;SDS011;59997;53.300;-6.260;2022-11-20T00:18:46;11.70;;;1.67;;
71941;SDS011;59997;53.300;-6.260;2022-11-20T00:21:12;13.33;;;2.00;;
71941;SDS011;59997;53.300;-6.260;2022-11-20T00:23:40;11.80;;;1.80;;
71941;SDS011;59997;53.300;-6.260;2022-11-20T00:26:07;11.05;;;1.90;;
71941;SDS011;59997;53.300;-6.260;2022-11-20T00:28:34;18.67;;;1.80;;
71941;SDS011;59997;53.300;-6.260;2022-11-20T00:31:01;12.87;;;1.70;;
71941;SDS011;59997;53.300;-6.260;2022-11-20T00:33:31;15.95;;;1.75;;
71941;SDS011;59997;53.300;-6.260;2022-11-20T00:36:00;13.77;;;1.97;;
71941;SDS011;59997;53.300;-6.260;2022-11-20T00:38:27;11.88;;;1.80;;
71941;SDS011;59997;53.300;-6.260;2022-11-20T00:40:56;13.35;;;2.10;;
71941;SDS011;59997;53.300;-6.260;2022-11-20T00:43:23;19.40;;;2.23;;
71941;SDS011;59997;53.300;-6.260;2022-11-20T00:45:50;10.45;;;1.85;;
71941;SDS011;59997;53.300;-6.260;2022-11-20T00:48:15;14.07;;;1.75;;
71941;SDS011;59997;53.300;-6.260;2022-11-20T00:50:41;14.53;;;1.90;;
71941;SDS011;59997;53.300;-6.260;2022-11-20T00:53:07;12.77;;;1.63;;
71941;SDS011;59997;53.300;-6.260;2022-11-20T00:55:32;14.63;;;2.10;;
71941;SDS011;59997;53.300;-6.260;2022-11-20T00:57:58;15.83;;;2.33;;
71941;SDS011;59997;53.300;-6.260;2022-11-20T01:00:23;13.00;;;2.17;;
71941;SDS011;59997;53.300;-6.260;2022-11-20T01:02:48;16.00;;;1.67;;
71941;SDS011;59997;53.300;-6.260;2022-11-20T01:05:14;14.60;;;2.13;;
71941;SDS011;59997;53.300;-6.260;2022-11-20T01:07:39;18.70;;;2.57;;
71941;SDS011;59997;53.300;-6.260;2022-11-20T01:10:05;18.97;;;2.20;;
71941;SDS011;59997;53.300;-6.260;2022-11-20T01:12:31;15.23;;;2.20;;
71941;SDS011;59997;53.300;-6.260;2022-11-20T01:14:56;15.80;;;2.10;;
71941;SDS011;59997;53.300;-6.260;2022-11-20T01:17:22;15.40;;;3.33;;
71941;SDS011;59997;53.300;-6.260;2022-11-20T01:19:50;21.63;;;2.60;;
71941;SDS011;59997;53.300;-6.260;2022-11-20T01:22:16;16.95;;;2.08;;
71941;SDS011;59997;53.300;-6.260;2022-11-20T01:24:41;18.80;;;2.10;;
71941;SDS011;59997;53.300;-6.260;2022-11-20T01:27:07;10.97;;;1.73;;
71941;SDS011;59997;53.300;-6.260;2022-11-20T01:29:32;15.23;;;2.13;;
71941;SDS011;59997;53.300;-6.260;2022-11-20T01:31:57;16.65;;;2.10;;
71941;SDS011;59997;53.300;-6.260;2022-11-20T01:34:24;18.83;;;2.53;;
71941;SDS011;59997;53.300;-6.260;2022-11-20T01:36:50;15.43;;;2.00;;
71941;SDS011;59997;53.300;-6.260;2022-11-20T01:39:19;17.70;;;2.00;;
71941;SDS011;59997;53.300;-6.260;2022-11-20T01:41:46;19.23;;;2.40;;
71941;SDS011;59997;53.300;-6.260;2022-11-20T01:44:51;20.52;;;2.50;;
71941;SDS011;59997;53.300;-6.260;2022-11-20T01:47:24;20.20;;;2.42;;
71941;SDS011;59997;53.300;-6.260;2022-11-20T01:50:01;18.02;;;2.47;;
71941;SDS011;59997;53.300;-6.260;2022-11-20T01:52:33;21.50;;;1.90;;
71941;SDS011;59997;53.300;-6.260;2022-11-20T01:55:07;18.13;;;2.03;;
71941;SDS011;59997;53.300;-6.260;2022-11-20T01:57:35;21.30;;;2.47;;
71941;SDS011;59997;53.300;-6.260;2022-11-20T02:02:32;19.08;;;1.90;;
71941;SDS011;59997;53.300;-6.260;2022-11-20T02:05:00;17.15;;;2.10;;
71941;SDS011;59997;53.300;-6.260;2022-11-20T02:07:34;15.43;;;2.10;;
71941;SDS011;59997;53.300;-6.260;2022-11-20T02:10:00;17.67;;;2.88;;
71941;SDS011;59997;53.300;-6.260;2022-11-20T02:12:26;15.35;;;1.90;;
71941;SDS011;59997;53.300;-6.260;2022-11-20T02:15:12;25.77;;;1.90;;
71941;SDS011;59997;53.300;-6.260;2022-11-20T02:17:37;20.73;;;1.85;;
71941;SDS011;59997;53.300;-6.260;2022-11-20T02:20:03;16.23;;;1.87;;
71941;SDS011;59997;53.300;-6.260;2022-11-20T02:22:31;14.02;;;1.75;;
71941;SDS011;59997;53.300;-6.260;2022-11-20T02:25:03;13.25;;;1.85;;
71941;SDS011;59997;53.300;-6.260;2022-11-20T02:27:30;17.88;;;2.08;;
71941;SDS011;59997;53.300;-6.260;2022-11-20T02:30:00;19.93;;;2.00;;
71941;SDS011;59997;53.300;-6.260;2022-11-20T02:32:28;22.13;;;2.50;;
71941;SDS011;59997;53.300;-6.260;2022-11-20T02:34:56;21.92;;;2.53;;
71941;SDS011;59997;53.300;-6.260;2022-11-20T02:37:22;21.13;;;2.10;;
71941;SDS011;59997;53.300;-6.260;2022-11-20T02:39:49;23.55;;;2.47;;
71941;SDS011;59997;53.300;-6.260;2022-11-20T02:42:17;21.70;;;2.13;;
71941;SDS011;59997;53.300;-6.260;2022-11-20T02:44:43;13.05;;;1.40;;
71941;SDS011;59997;53.300;-6.260;2022-11-20T02:47:08;16.57;;;1.67;;
71941;SDS011;59997;53.300;-6.260;2022-11-20T02:49:34;12.77;;;1.70;;
71941;SDS011;59997;53.300;-6.260;2022-11-20T02:51:59;13.57;;;2.17;;
71941;SDS011;59997;53.300;-6.260;2022-11-20T02:54:25;14.70;;;1.63;;
71941;SDS011;59997;53.300;-6.260;2022-11-20T02:56:50;17.13;;;1.97;;
71941;SDS011;59997;53.300;-6.260;2022-11-20T02:59:16;14.15;;;1.58;;
71941;SDS011;59997;53.300;-6.260;2022-11-20T03:01:41;10.67;;;1.57;;
71941;SDS011;59997;53.300;-6.260;2022-11-20T03:04:07;18.60;;;2.23;;
71941;SDS011;59997;53.300;-6.260;2022-11-20T03:06:33;13.48;;;1.50;;
71941;SDS011;59997;53.300;-6.260;2022-11-20T03:08:59;16.95;;;2.17;;
71941;SDS011;59997;53.300;-6.260;2022-11-20T03:11:24;15.33;;;1.90;;
71941;SDS011;59997;53.300;-6.260;2022-11-20T03:13:50;11.17;;;1.87;;
71941;SDS011;59997;53.300;-6.260;2022-11-20T03:16:17;13.70;;;1.10;;
71941;SDS011;59997;53.300;-6.260;2022-11-20T03:18:44;13.90;;;1.42;;
71941;SDS011;59997;53.300;-6.260;2022-11-20T03:21:10;10.40;;;1.40;;
71941;SDS011;59997;53.300;-6.260;2022-11-20T03:23:37;9.00;;;1.88;;
71941;SDS011;59997;53.300;-6.260;2022-11-20T03:26:07;8.70;;;1.58;;
71941;SDS011;59997;53.300;-6.260;2022-11-20T03:28:48;8.75;;;1.08;;
71941;SDS011;59997;53.300;-6.260;2022-11-20T03:31:15;10.20;;;1.15;;
71941;SDS011;59997;53.300;-6.260;2022-11-20T03:33:42;9.68;;;1.15;;
71941;SDS011;59997;53.300;-6.260;2022-11-20T03:36:09;10.55;;;1.33;;
71941;SDS011;59997;53.300;-6.260;2022-11-20T03:38:37;12.95;;;1.40;;
71941;SDS011;59997;53.300;-6.260;2022-11-20T03:41:06;12.00;;;1.40;;
71941;SDS011;59997;53.300;-6.260;2022-11-20T03:43:33;10.65;;;0.80;;
71941;SDS011;59997;53.300;-6.260;2022-11-20T03:45:59;9.40;;;1.00;;
71941;SDS011;59997;53.300;-6.260;2022-11-20T03:48:25;8.13;;;1.55;;
71941;SDS011;59997;53.300;-6.260;2022-11-20T03:50:51;11.88;;;0.88;;
71941;SDS011;59997;53.300;-6.260;2022-11-20T03:53:18;14.47;;;1.60;;
71941;SDS011;59997;53.300;-6.260;2022-11-20T03:55:44;14.75;;;1.42;;
71941;SDS011;59997;53.300;-6.260;2022-11-20T03:58:15;10.15;;;1.10;;
71941;SDS011;59997;53.300;-6.260;2022-11-20T04:00:40;11.50;;;1.23;;
71941;SDS011;59997;53.300;-6.260;2022-11-20T04:03:05;10.13;;;1.07;;
71941;SDS011;59997;53.300;-6.260;2022-11-20T04:05:32;9.35;;;0.90;;
71941;SDS011;59997;53.300;-6.260;2022-11-20T04:07:58;8.47;;;1.13;;
71941;SDS011;59997;53.300;-6.260;2022-11-20T04:10:23;12.45;;;1.48;;
71941;SDS011;59997;53.300;-6.260;2022-11-20T04:12:49;11.97;;;0.97;;
71941;SDS011;59997;53.300;-6.260;2022-11-20T04:15:14;14.90;;;2.57;;
71941;SDS011;59997;53.300;-6.260;2022-11-20T04:17:40;11.40;;;1.03;;
71941;SDS011;59997;53.300;-6.260;2022-11-20T04:20:06;15.88;;;1.15;;
71941;SDS011;59997;53.300;-6.260;2022-11-20T04:22:32;12.57;;;1.67;;
71941;SDS011;59997;53.300;-6.260;2022-11-20T04:24:57;12.20;;;1.47;;
71941;SDS011;59997;53.300;-6.260;2022-11-20T04:27:22;15.20;;;1.60;;
71941;SDS011;59997;53.300;-6.260;2022-11-20T04:29:48;8.97;;;1.00;;
71941;SDS011;59997;53.300;-6.260;2022-11-20T04:32:13;11.25;;;1.52;;
71941;SDS011;59997;53.300;-6.260;2022-11-20T04:34:39;12.93;;;1.70;;
71941;SDS011;59997;53.300;-6.260;2022-11-20T04:37:04;12.90;;;1.30;;
71941;SDS011;59997;53.300;-6.260;2022-11-20T04:39:30;10.37;;;1.47;;
71941;SDS011;59997;53.300;-6.260;2022-11-20T04:41:56;13.32;;;1.20;;
71941;SDS011;59997;53.300;-6.260;2022-11-20T04:44:40;15.32;;;1.88;;
71941;SDS011;59997;53.300;-6.260;2022-11-20T04:47:05;14.80;;;1.50;;
71941;SDS011;59997;53.300;-6.260;2022-11-20T04:49:31;15.13;;;1.73;;
71941;SDS011;59997;53.300;-6.260;2022-11-20T04:51:57;15.27;;;1.65;;
71941;SDS011;59997;53.300;-6.260;2022-11-20T04:54:23;18.05;;;1.50;;
71941;SDS011;59997;53.300;-6.260;2022-11-20T04:56:49;18.10;;;1.67;;
71941;SDS011;59997;53.300;-6.260;2022-11-20T04:59:15;21.50;;;5.35;;
71941;SDS011;59997;53.300;-6.260;2022-11-20T05:01:40;16.93;;;1.83;;
71941;SDS011;59997;53.300;-6.260;2022-11-20T05:04:06;19.63;;;2.83;;
71941;SDS011;59997;53.300;-6.260;2022-11-20T05:06:32;17.83;;;2.07;;
71941;SDS011;59997;53.300;-6.260;2022-11-20T05:08:57;15.30;;;1.30;;
71941;SDS011;59997;53.300;-6.260;2022-11-20T05:11:23;12.33;;;1.00;;
71941;SDS011;59997;53.300;-6.260;2022-11-20T05:13:49;13.20;;;1.55;;
71941;SDS011;59997;53.300;-6.260;2022-11-20T05:16:20;18.15;;;1.55;;
71941;SDS011;59997;53.300;-6.260;2022-11-20T05:18:47;12.10;;;1.20;;
71941;SDS011;59997;53.300;-6.260;2022-11-20T05:21:14;18.15;;;2.08;;
71941;SDS011;59997;53.300;-6.260;2022-11-20T05:23:41;15.18;;;1.30;;
71941;SDS011;59997;53.300;-6.260;2022-11-20T05:26:08;22.42;;;1.55;;
71941;SDS011;59997;53.300;-6.260;2022-11-20T05:28:37;11.60;;;1.20;;
71941;SDS011;59997;53.300;-6.260;2022-11-20T05:31:10;17.13;;;1.37;;
71941;SDS011;59997;53.300;-6.260;2022-11-20T05:33:39;11.38;;;1.50;;
71941;SDS011;59997;53.300;-6.260;2022-11-20T05:36:05;17.07;;;1.30;;
71941;SDS011;59997;53.300;-6.260;2022-11-20T05:38:32;15.52;;;1.77;;
71941;SDS011;59997;53.300;-6.260;2022-11-20T05:41:05;10.18;;;1.10;;
71941;SDS011;59997;53.300;-6.260;2022-11-20T05:43:36;11.18;;;1.50;;
71941;SDS011;59997;53.300;-6.260;2022-11-20T05:46:03;8.73;;;1.08;;
71941;SDS011;59997;53.300;-6.260;2022-11-20T05:48:29;12.35;;;1.52;;
71941;SDS011;59997;53.300;-6.260;2022-11-20T05:50:59;8.15;;;1.02;;
71941;SDS011;59997;53.300;-6.260;2022-11-20T05:53:25;10.40;;;1.40;;
71941;SDS011;59997;53.300;-6.260;2022-11-20T05:55:58;9.82;;;1.13;;
71941;SDS011;59997;53.300;-6.260;2022-11-20T05:58:28;7.18;;;0.90;;
71941;SDS011;59997;53.300;-6.260;2022-11-20T06:00:54;15.57;;;1.50;;
71941;SDS011;59997;53.300;-6.260;2022-11-20T06:03:20;8.35;;;1.13;;
71941;SDS011;59997;53.300;-6.260;2022-11-20T06:05:46;10.07;;;1.10;;
71941;SDS011;59997;53.300;-6.260;2022-11-20T06:08:11;6.18;;;0.55;;
71941;SDS011;59997;53.300;-6.260;2022-11-20T06:10:37;12.77;;;1.13;;
71941;SDS011;59997;53.300;-6.260;2022-11-20T06:13:02;11.52;;;1.20;;
71941;SDS011;59997;53.300;-6.260;2022-11-20T06:15:28;12.97;;;1.17;;
71941;SDS011;59997;53.300;-6.260;2022-11-20T06:17:54;9.87;;;0.80;;
71941;SDS011;59997;53.300;-6.260;2022-11-20T06:20:23;9.20;;;0.77;;
71941;SDS011;59997;53.300;-6.260;2022-11-20T06:22:48;9.68;;;0.70;;
71941;SDS011;59997;53.300;-6.260;2022-11-20T06:25:14;9.57;;;1.00;;
71941;SDS011;59997;53.300;-6.260;2022-11-20T06:27:39;9.47;;;0.77;;
71941;SDS011;59997;53.300;-6.260;2022-11-20T06:30:05;7.07;;;0.70;;
71941;SDS011;59997;53.300;-6.260;2022-11-20T06:32:30;11.07;;;0.93;;
71941;SDS011;59997;53.300;-6.260;2022-11-20T06:34:56;9.33;;;1.00;;
71941;SDS011;59997;53.300;-6.260;2022-11-20T06:37:21;8.20;;;0.90;;
71941;SDS011;59997;53.300;-6.260;2022-11-20T06:39:47;13.73;;;1.23;;
71941;SDS011;59997;53.300;-6.260;2022-11-20T06:42:12;14.50;;;1.23;;
71941;SDS011;59997;53.300;-6.260;2022-11-20T06:44:38;11.17;;;1.30;;
71941;SDS011;59997;53.300;-6.260;2022-11-20T06:47:03;10.88;;;1.02;;
71941;SDS011;59997;53.300;-6.260;2022-11-20T06:49:29;13.20;;;1.40;;
71941;SDS011;59997;53.300;-6.260;2022-11-20T06:51:54;7.63;;;0.70;;
71941;SDS011;59997;53.300;-6.260;2022-11-20T06:54:19;12.97;;;1.33;;
71941;SDS011;59997;53.300;-6.260;2022-11-20T06:56:48;8.70;;;0.93;;
71941;SDS011;59997;53.300;-6.260;2022-11-20T06:59:14;9.45;;;0.85;;
71941;SDS011;59997;53.300;-6.260;2022-11-20T07:01:39;9.30;;;1.10;;
71941;SDS011;59997;53.300;-6.260;2022-11-20T07:04:05;14.93;;;1.25;;
71941;SDS011;59997;53.300;-6.260;2022-11-20T07:06:31;8.67;;;1.20;;
71941;SDS011;59997;53.300;-6.260;2022-11-20T07:08:57;14.68;;;1.35;;
71941;SDS011;59997;53.300;-6.260;2022-11-20T07:11:23;9.23;;;0.73;;
71941;SDS011;59997;53.300;-6.260;2022-11-20T07:13:48;8.73;;;1.00;;
71941;SDS011;59997;53.300;-6.260;2022-11-20T07:16:14;7.70;;;0.90;;
71941;SDS011;59997;53.300;-6.260;2022-11-20T07:18:40;12.27;;;1.33;;
71941;SDS011;59997;53.300;-6.260;2022-11-20T07:21:06;12.03;;;1.07;;
71941;SDS011;59997;53.300;-6.260;2022-11-20T07:23:33;10.05;;;1.13;;
71941;SDS011;59997;53.300;-6.260;2022-11-20T07:26:03;12.75;;;1.10;;
71941;SDS011;59997;53.300;-6.260;2022-11-20T07:28:29;9.45;;;1.00;;
71941;SDS011;59997;53.300;-6.260;2022-11-20T07:30:55;9.95;;;0.95;;
71941;SDS011;59997;53.300;-6.260;2022-11-20T07:33:20;10.07;;;0.87;;
71941;SDS011;59997;53.300;-6.260;2022-11-20T07:35:46;10.43;;;1.73;;
71941;SDS011;59997;53.300;-6.260;2022-11-20T07:38:11;7.82;;;0.85;;
71941;SDS011;59997;53.300;-6.260;2022-11-20T07:40:37;9.57;;;1.60;;
71941;SDS011;59997;53.300;-6.260;2022-11-20T07:43:02;14.53;;;1.17;;
71941;SDS011;59997;53.300;-6.260;2022-11-20T07:45:28;11.37;;;1.17;;
71941;SDS011;59997;53.300;-6.260;2022-11-20T07:47:54;12.90;;;1.45;;
71941;SDS011;59997;53.300;-6.260;2022-11-20T07:50:19;9.98;;;0.95;;
71941;SDS011;59997;53.300;-6.260;2022-11-20T07:52:45;15.63;;;1.00;;
71941;SDS011;59997;53.300;-6.260;2022-11-20T07:55:11;14.20;;;1.25;;
71941;SDS011;59997;53.300;-6.260;2022-11-20T07:57:37;13.73;;;1.23;;
71941;SDS011;59997;53.300;-6.260;2022-11-20T08:00:04;12.87;;;1.33;;
71941;SDS011;59997;53.300;-6.260;2022-11-20T08:02:30;11.90;;;1.48;;
71941;SDS011;59997;53.300;-6.260;2022-11-20T08:04:56;14.27;;;1.53;;
71941;SDS011;59997;53.300;-6.260;2022-11-20T08:07:21;11.70;;;1.75;;
71941;SDS011;59997;53.300;-6.260;2022-11-20T08:09:47;11.87;;;0.93;;
71941;SDS011;59997;53.300;-6.260;2022-11-20T08:12:19;14.37;;;1.33;;
71941;SDS011;59997;53.300;-6.260;2022-11-20T08:15:04;12.95;;;1.38;;
71941;SDS011;59997;53.300;-6.260;2022-11-20T08:17:31;11.25;;;1.20;;
71941;SDS011;59997;53.300;-6.260;2022-11-20T08:19:56;13.93;;;1.80;;
71941;SDS011;59997;53.300;-6.260;2022-11-20T08:22:22;10.33;;;1.30;;
71941;SDS011;59997;53.300;-6.260;2022-11-20T08:24:48;11.97;;;2.00;;
71941;SDS011;59997;53.300;-6.260;2022-11-20T08:27:14;19.37;;;3.07;;
71941;SDS011;59997;53.300;-6.260;2022-11-20T08:29:39;17.00;;;3.87;;
71941;SDS011;59997;53.300;-6.260;2022-11-20T08:32:04;12.95;;;2.22;;
71941;SDS011;59997;53.300;-6.260;2022-11-20T08:34:30;23.60;;;3.70;;
71941;SDS011;59997;53.300;-6.260;2022-11-20T08:36:55;14.10;;;2.00;;
71941;SDS011;59997;53.300;-6.260;2022-11-20T08:39:21;15.27;;;3.33;;
71941;SDS011;59997;53.300;-6.260;2022-11-20T08:41:47;22.02;;;3.92;;
71941;SDS011;59997;53.300;-6.260;2022-11-20T08:44:12;13.30;;;1.67;;
71941;SDS011;59997;53.300;-6.260;2022-11-20T08:46:39;16.55;;;2.38;;
71941;SDS011;59997;53.300;-6.260;2022-11-20T08:49:09;18.50;;;4.80;;
71941;SDS011;59997;53.300;-6.260;2022-11-20T08:51:36;36.38;;;8.05;;
71941;SDS011;59997;53.300;-6.260;2022-11-20T08:54:02;16.23;;;3.85;;
71941;SDS011;59997;53.300;-6.260;2022-11-20T08:56:29;14.18;;;3.03;;
71941;SDS011;59997;53.300;-6.260;2022-11-20T08:58:54;14.60;;;3.00;;
71941;SDS011;59997;53.300;-6.260;2022-11-20T09:01:20;15.55;;;2.30;;
71941;SDS011;59997;53.300;-6.260;2022-11-20T09:03:48;14.03;;;2.97;;
71941;SDS011;59997;53.300;-6.260;2022-11-20T09:06:14;11.88;;;2.80;;
71941;SDS011;59997;53.300;-6.260;2022-11-20T09:08:39;13.15;;;1.58;;
71941;SDS011;59997;53.300;-6.260;2022-11-20T09:11:05;15.03;;;2.53;;
71941;SDS011;59997;53.300;-6.260;2022-11-20T09:13:32;13.18;;;1.75;;
71941;SDS011;59997;53.300;-6.260;2022-11-20T09:16:00;7.97;;;1.20;;
71941;SDS011;59997;53.300;-6.260;2022-11-20T09:18:35;18.80;;;3.15;;
71941;SDS011;59997;53.300;-6.260;2022-11-20T09:21:03;14.43;;;2.50;;
71941;SDS011;59997;53.300;-6.260;2022-11-20T09:23:31;11.18;;;1.25;;
71941;SDS011;59997;53.300;-6.260;2022-11-20T09:26:01;5.72;;;0.68;;
71941;SDS011;59997;53.300;-6.260;2022-11-20T09:28:31;10.23;;;2.63;;
71941;SDS011;59997;53.300;-6.260;2022-11-20T09:30:58;8.90;;;1.88;;
71941;SDS011;59997;53.300;-6.260;2022-11-20T09:33:23;8.68;;;1.42;;
71941;SDS011;59997;53.300;-6.260;2022-11-20T09:35:49;11.47;;;1.93;;
71941;SDS011;59997;53.300;-6.260;2022-11-20T09:38:14;8.70;;;1.03;;
71941;SDS011;59997;53.300;-6.260;2022-11-20T09:54:51;8.75;;;1.20;;
71941;SDS011;59997;53.300;-6.260;2022-11-20T09:57:05;12.40;;;1.00;;
71941;SDS011;59997;53.300;-6.260;2022-11-20T09:59:40;10.05;;;1.33;;
71941;SDS011;59997;53.300;-6.260;2022-11-20T10:02:21;7.45;;;0.95;;
71941;SDS011;59997;53.300;-6.260;2022-11-20T10:07:35;9.65;;;1.05;;
71941;SDS011;59997;53.300;-6.260;2022-11-20T10:10:02;6.38;;;0.68;;
71941;SDS011;59997;53.300;-6.260;2022-11-20T10:12:37;10.43;;;1.13;;
71941;SDS011;59997;53.300;-6.260;2022-11-20T10:18:02;7.88;;;1.33;;
71941;SDS011;59997;53.300;-6.260;2022-11-20T10:26:46;14.95;;;3.75;;
71941;SDS011;59997;53.300;-6.260;2022-11-20T10:29:37;25.42;;;10.60;;
71941;SDS011;59997;53.300;-6.260;2022-11-20T10:32:07;10.48;;;3.88;;
71941;SDS011;59997;53.300;-6.260;2022-11-20T10:34:46;6.38;;;2.45;;
71941;SDS011;59997;53.300;-6.260;2022-11-20T10:37:27;5.20;;;1.40;;
71941;SDS011;59997;53.300;-6.260;2022-11-20T10:47:56;6.88;;;1.52;;
71941;SDS011;59997;53.300;-6.260;2022-11-20T10:50:25;8.65;;;1.27;;
71941;SDS011;59997;53.300;-6.260;2022-11-20T10:58:43;6.57;;;0.70;;
71941;SDS011;59997;53.300;-6.260;2022-11-20T11:01:17;4.90;;;0.60;;
71941;SDS011;59997;53.300;-6.260;2022-11-20T11:03:44;3.15;;;0.32;;
71941;SDS011;59997;53.300;-6.260;2022-11-20T11:09:11;3.08;;;0.70;;
71941;SDS011;59997;53.300;-6.260;2022-11-20T11:11:41;3.72;;;0.80;;
71941;SDS011;59997;53.300;-6.260;2022-11-20T11:16:35;2.90;;;0.40;;
71941;SDS011;59997;53.300;-6.260;2022-11-20T11:19:04;1.93;;;0.20;;
71941;SDS011;59997;53.300;-6.260;2022-11-20T11:21:31;2.83;;;0.40;;
71941;SDS011;59997;53.300;-6.260;2022-11-20T11:23:57;3.10;;;0.60;;
71941;SDS011;59997;53.300;-6.260;2022-11-20T11:26:29;3.05;;;0.38;;
71941;SDS011;59997;53.300;-6.260;2022-11-20T11:28:58;2.28;;;0.30;;
71941;SDS011;59997;53.300;-6.260;2022-11-20T11:31:26;3.55;;;0.70;;
71941;SDS011;59997;53.300;-6.260;2022-11-20T11:34:06;3.47;;;0.95;;
71941;SDS011;59997;53.300;-6.260;2022-11-20T11:36:41;3.50;;;0.50;;
71941;SDS011;59997;53.300;-6.260;2022-11-20T11:39:16;3.50;;;0.55;;
71941;SDS011;59997;53.300;-6.260;2022-11-20T11:41:44;4.20;;;0.85;;
71941;SDS011;59997;53.300;-6.260;2022-11-20T11:50:00;5.87;;;0.70;;
71941;SDS011;59997;53.300;-6.260;2022-11-20T11:55:17;3.10;;;0.43;;
71941;SDS011;59997;53.300;-6.260;2022-11-20T12:00:51;6.45;;;1.00;;
71941;SDS011;59997;53.300;-6.260;2022-11-20T12:03:27;6.57;;;1.00;;
71941;SDS011;59997;53.300;-6.260;2022-11-20T12:06:05;6.93;;;1.52;;
71941;SDS011;59997;53.300;-6.260;2022-11-20T12:08:50;7.38;;;2.40;;
71941;SDS011;59997;53.300;-6.260;2022-11-20T12:11:28;6.22;;;1.20;;
71941;SDS011;59997;53.300;-6.260;2022-11-20T12:14:00;4.35;;;0.90;;
71941;SDS011;59997;53.300;-6.260;2022-11-20T12:16:41;4.50;;;0.90;;
71941;SDS011;59997;53.300;-6.260;2022-11-20T12:19:08;4.85;;;0.80;;
71941;SDS011;59997;53.300;-6.260;2022-11-20T12:27:01;5.43;;;1.20;;
71941;SDS011;59997;53.300;-6.260;2022-11-20T12:29:50;7.30;;;2.42;;
71941;SDS011;59997;53.300;-6.260;2022-11-20T12:49:52;5.88;;;1.48;;
71941;SDS011;59997;53.300;-6.260;2022-11-20T12:52:33;5.53;;;0.80;;
71941;SDS011;59997;53.300;-6.260;2022-11-20T12:55:03;5.20;;;0.52;;
71941;SDS011;59997;53.300;-6.260;2022-11-20T13:00:20;5.78;;;0.98;;
71941;SDS011;59997;53.300;-6.260;2022-11-20T13:05:55;2.80;;;0.30;;
71941;SDS011;59997;53.300;-6.260;2022-11-20T13:08:34;5.88;;;0.82;;
71941;SDS011;59997;53.300;-6.260;2022-11-20T13:19:28;5.03;;;0.70;;
71941;SDS011;59997;53.300;-6.260;2022-11-20T13:21:54;5.43;;;0.57;;
71941;SDS011;59997;53.300;-6.260;2022-11-20T13:27:33;5.55;;;0.65;;
71941;SDS011;59997;53.300;-6.260;2022-11-20T13:29:37;7.13;;;0.63;;
71941;SDS011;59997;53.300;-6.260;2022-11-20T13:34:36;5.80;;;0.90;;
71941;SDS011;59997;53.300;-6.260;2022-11-20T13:37:02;6.43;;;0.60;;
71941;SDS011;59997;53.300;-6.260;2022-11-20T13:39:32;5.70;;;0.60;;
71941;SDS011;59997;53.300;-6.260;2022-11-20T13:42:00;4.70;;;0.60;;
71941;SDS011;59997;53.300;-6.260;2022-11-20T13:47:34;6.53;;;0.80;;
71941;SDS011;59997;53.300;-6.260;2022-11-20T13:50:02;3.97;;;0.50;;
71941;SDS011;59997;53.300;-6.260;2022-11-20T14:00:22;4.57;;;0.90;;
71941;SDS011;59997;53.300;-6.260;2022-11-20T14:03:09;5.93;;;0.70;;
71941;SDS011;59997;53.300;-6.260;2022-11-20T14:05:51;7.68;;;0.68;;
71941;SDS011;59997;53.300;-6.260;2022-11-20T14:08:53;4.43;;;0.52;;
71941;SDS011;59997;53.300;-6.260;2022-11-20T14:11:19;3.60;;;0.47;;
71941;SDS011;59997;53.300;-6.260;2022-11-20T14:13:53;4.18;;;0.70;;
71941;SDS011;59997;53.300;-6.260;2022-11-20T14:16:24;4.63;;;0.50;;
71941;SDS011;59997;53.300;-6.260;2022-11-20T14:18:51;10.20;;;0.70;;
71941;SDS011;59997;53.300;-6.260;2022-11-20T14:21:24;6.15;;;0.50;;
71941;SDS011;59997;53.300;-6.260;2022-11-20T14:24:33;8.00;;;0.83;;
71941;SDS011;59997;53.300;-6.260;2022-11-20T14:26:44;3.95;;;0.43;;
71941;SDS011;59997;53.300;-6.260;2022-11-20T14:29:14;4.10;;;0.80;;
71941;SDS011;59997;53.300;-6.260;2022-11-20T14:31:43;5.50;;;0.70;;
71941;SDS011;59997;53.300;-6.260;2022-11-20T14:34:17;6.25;;;0.93;;
71941;SDS011;59997;53.300;-6.260;2022-11-20T14:36:45;6.17;;;0.80;;
71941;SDS011;59997;53.300;-6.260;2022-11-20T14:39:11;7.97;;;0.75;;
71941;SDS011;59997;53.300;-6.260;2022-11-20T14:41:50;7.60;;;1.00;;
71941;SDS011;59997;53.300;-6.260;2022-11-20T14:44:16;5.47;;;0.60;;
71941;SDS011;59997;53.300;-6.260;2022-11-20T14:46:42;7.93;;;1.53;;
71941;SDS011;59997;53.300;-6.260;2022-11-20T14:49:08;5.10;;;0.65;;
71941;SDS011;59997;53.300;-6.260;2022-11-20T14:51:36;4.82;;;1.17;;
71941;SDS011;59997;53.300;-6.260;2022-11-20T14:57:21;9.52;;;1.42;;
71941;SDS011;59997;53.300;-6.260;2022-11-20T14:59:47;5.87;;;1.30;;
71941;SDS011;59997;53.300;-6.260;2022-11-20T15:02:12;8.10;;;1.25;;
71941;SDS011;59997;53.300;-6.260;2022-11-20T15:04:56;6.60;;;1.30;;
71941;SDS011;59997;53.300;-6.260;2022-11-20T15:07:34;8.05;;;1.88;;
71941;SDS011;59997;53.300;-6.260;2022-11-20T15:10:03;8.38;;;1.35;;
71941;SDS011;59997;53.300;-6.260;2022-11-20T15:12:31;6.97;;;1.38;;
71941;SDS011;59997;53.300;-6.260;2022-11-20T15:14:57;6.20;;;1.20;;
71941;SDS011;59997;53.300;-6.260;2022-11-20T15:17:23;5.85;;;1.20;;
71941;SDS011;59997;53.300;-6.260;2022-11-20T15:19:49;7.03;;;1.00;;
71941;SDS011;59997;53.300;-6.260;2022-11-20T15:22:15;7.20;;;0.90;;
71941;SDS011;59997;53.300;-6.260;2022-11-20T15:24:44;5.13;;;0.90;;
71941;SDS011;59997;53.300;-6.260;2022-11-20T15:27:10;6.60;;;1.23;;
71941;SDS011;59997;53.300;-6.260;2022-11-20T15:29:36;11.35;;;3.33;;
71941;SDS011;59997;53.300;-6.260;2022-11-20T15:32:01;5.20;;;1.60;;
71941;SDS011;59997;53.300;-6.260;2022-11-20T15:34:27;7.30;;;1.57;;
71941;SDS011;59997;53.300;-6.260;2022-11-20T15:36:53;7.37;;;1.63;;
71941;SDS011;59997;53.300;-6.260;2022-11-20T15:39:19;6.15;;;1.38;;
71941;SDS011;59997;53.300;-6.260;2022-11-20T15:41:45;8.70;;;1.25;;
71941;SDS011;59997;53.300;-6.260;2022-11-20T15:44:11;10.18;;;1.60;;
71941;SDS011;59997;53.300;-6.260;2022-11-20T15:46:37;6.87;;;1.50;;
71941;SDS011;59997;53.300;-6.260;2022-11-20T15:49:10;6.65;;;1.10;;
71941;SDS011;59997;53.300;-6.260;2022-11-20T15:51:39;7.22;;;1.40;;
71941;SDS011;59997;53.300;-6.260;2022-11-20T15:54:11;7.90;;;1.87;;
71941;SDS011;59997;53.300;-6.260;2022-11-20T15:56:38;8.63;;;1.48;;
71941;SDS011;59997;53.300;-6.260;2022-11-20T15:59:03;9.03;;;1.90;;
71941;SDS011;59997;53.300;-6.260;2022-11-20T16:01:29;8.38;;;1.92;;
71941;SDS011;59997;53.300;-6.260;2022-11-20T16:03:54;8.60;;;1.93;;
71941;SDS011;59997;53.300;-6.260;2022-11-20T16:06:20;8.27;;;2.40;;
71941;SDS011;59997;53.300;-6.260;2022-11-20T16:08:45;6.07;;;1.60;;
71941;SDS011;59997;53.300;-6.260;2022-11-20T16:11:14;10.13;;;5.00;;
71941;SDS011;59997;53.300;-6.260;2022-11-20T16:13:41;17.33;;;10.23;;
71941;SDS011;59997;53.300;-6.260;2022-11-20T16:16:33;13.50;;;6.00;;
71941;SDS011;59997;53.300;-6.260;2022-11-20T16:19:00;12.95;;;4.95;;
71941;SDS011;59997;53.300;-6.260;2022-11-20T16:21:26;8.90;;;2.20;;
71941;SDS011;59997;53.300;-6.260;2022-11-20T16:23:56;8.63;;;2.30;;
71941;SDS011;59997;53.300;-6.260;2022-11-20T16:26:23;10.73;;;2.35;;
71941;SDS011;59997;53.300;-6.260;2022-11-20T16:28:48;12.30;;;2.50;;